Brookeville, MD (20833)

3:03 PM EDT on March 28, 2015 (GMT -0400)
Triadelphia Reservoir | | Change Station
CLOSE
Current Station
Personal Weather Station
Location: Brookeville, MD
Elevation: 463 ft
Nearby Weather Stations

Elev 463 ft 39.19 °N, 77.02 °W | Updated 2 minutes ago

Overcast
Overcast
32.5 °F
Feels Like 32 °F
N
2.0
Wind Variable Wind from North
Gusts 14.0 mph

Today
High -- | Low -- °F
--% Chance of Precip.
Yesterday
High -- | Low -- °F
Precip. -- in
6:59 AM 7:27 PM
Waxing Gibbous, 64% visible
Pressure 30.04 in
Visibility 10.0 miles
Clouds Scattered Clouds 5000 ft
Windchill 32 °F
Dew Point 14 °F
Humidity 47%
Rainfall 0.00 in
Snow Depth Not available.
UV 6 out of 12
Pollen 7.70 out of 12
Air Quality Not available.
Flu Activity Not available.
METAR KGAI 281855Z AUTO 29013G22KT 10SM SCT050 01/M11 A3004 RMK AO1

More Conditions Fewer Conditions

Pressure 30.04 in
Visibility 10.0 miles
Clouds Scattered Clouds 5000 ft
Windchill 32 °F
Dew Point 14 °F
Humidity 47%
Rainfall 0.00 in
Snow Depth Not available.
UV 6 out of 12
Pollen 7.70 out of 12
Air Quality Not available.
Flu Activity Not available.
METAR KGAI 281855Z AUTO 29013G22KT 10SM SCT050 01/M11 A3004 RMK AO1

More Conditions Fewer Conditions

10-Day Weather Forecast

Almanac

Astronomy

Mar. 28, 2015 Rise Set
Actual Time
Civil Twilight
Nautical Twilight
Astronomical Twilight
Moon
Length of Visible Light
Length of Day
Tomorrow will be .
, % of the Moon is Illuminated

Today's Extremes

State Highs State Lows

Community

WunderPhotos

Upload Photos

1,809,069 photos uploaded!

WunderBlogs® & News

Nearby

Air Quality

  Air Quality AQ Index Pollutant
Not available.

Snow Depth

Station Depth Elevation

Earthquake Activity

City Distance Mag. Time & Date
Minimum magnitude displayed is 2.5.

Coastal Water Temperatures

Place Temperature

Stations

Nearby Weather Stations

Station Location Temp. Windchill Dew Point Humidity Wind Precip. Elev Updated Type